Atwater, California
Current Conditions -  °F | °C
As of 12:55 AM on Monday 22 Dec 2014 (Local Time) from KMER Reporting Station
Overcast Overcast  
Wind Chill: 57°   Ceiling: 300
Heat Index: 57°   Visibility: 5mi
Dew Point: 57°   Wind: 8mph
Humidity: 100%   Direction: 50°NE
Pressure: 30.25"   Gusts: NA
Location:  37.35°N, 120.6°W
Report Text: KMER 220855Z AUTO 05007KT 5SM OVC003 14/14 A3025 RMK AO1
Loading
Personal Weather Stations






























Interactive Weather Map New forecast layout! Learn more

10-Day Weather Forecast

Advertisements
Track Severe Weather on mobile